sensor_id;sensor_type;location;lat;lon;timestamp;pressure;altitude;pressure_sealevel;temperature
75822;BMP180;64454;51.984;9.838;2023-06-14T00:01:03;100287.00;;;18.60
75822;BMP180;64454;51.984;9.838;2023-06-14T00:03:31;100279.00;;;18.40
75822;BMP180;64454;51.984;9.838;2023-06-14T00:05:58;100283.00;;;18.60
75822;BMP180;64454;51.984;9.838;2023-06-14T00:08:25;100282.00;;;18.50
75822;BMP180;64454;51.984;9.838;2023-06-14T00:10:54;100275.00;;;18.50
75822;BMP180;64454;51.984;9.838;2023-06-14T00:13:20;100280.00;;;18.40
75822;BMP180;64454;51.984;9.838;2023-06-14T00:15:47;100280.00;;;18.20
75822;BMP180;64454;51.984;9.838;2023-06-14T00:18:14;100280.00;;;18.10
75822;BMP180;64454;51.984;9.838;2023-06-14T00:20:42;100279.00;;;18.20
75822;BMP180;64454;51.984;9.838;2023-06-14T00:23:09;100283.00;;;18.10
75822;BMP180;64454;51.984;9.838;2023-06-14T00:25:35;100283.00;;;18.20
75822;BMP180;64454;51.984;9.838;2023-06-14T00:28:04;100287.00;;;17.90
75822;BMP180;64454;51.984;9.838;2023-06-14T00:30:31;100277.00;;;17.90
75822;BMP180;64454;51.984;9.838;2023-06-14T00:32:58;100284.00;;;18.10
75822;BMP180;64454;51.984;9.838;2023-06-14T00:35:25;100287.00;;;18.00
75822;BMP180;64454;51.984;9.838;2023-06-14T00:37:52;100283.00;;;18.00
75822;BMP180;64454;51.984;9.838;2023-06-14T00:40:20;100288.00;;;18.10
75822;BMP180;64454;51.984;9.838;2023-06-14T00:42:47;100287.00;;;18.10
75822;BMP180;64454;51.984;9.838;2023-06-14T00:45:16;100292.00;;;18.10
75822;BMP180;64454;51.984;9.838;2023-06-14T00:47:44;100288.00;;;17.90
75822;BMP180;64454;51.984;9.838;2023-06-14T00:50:12;100285.00;;;17.90
75822;BMP180;64454;51.984;9.838;2023-06-14T00:52:40;100282.00;;;17.90
75822;BMP180;64454;51.984;9.838;2023-06-14T00:55:08;100280.00;;;18.00
75822;BMP180;64454;51.984;9.838;2023-06-14T00:57:35;100281.00;;;17.90
75822;BMP180;64454;51.984;9.838;2023-06-14T01:00:04;100282.00;;;17.60
75822;BMP180;64454;51.984;9.838;2023-06-14T01:02:36;100280.00;;;17.50
75822;BMP180;64454;51.984;9.838;2023-06-14T01:05:04;100284.00;;;17.50
75822;BMP180;64454;51.984;9.838;2023-06-14T01:07:43;100290.00;;;17.60
75822;BMP180;64454;51.984;9.838;2023-06-14T01:10:30;100289.00;;;17.50
75822;BMP180;64454;51.984;9.838;2023-06-14T01:13:07;100294.00;;;17.60
75822;BMP180;64454;51.984;9.838;2023-06-14T01:15:36;100293.00;;;17.60
75822;BMP180;64454;51.984;9.838;2023-06-14T01:18:05;100292.00;;;17.40
75822;BMP180;64454;51.984;9.838;2023-06-14T01:20:33;100298.00;;;17.40
75822;BMP180;64454;51.984;9.838;2023-06-14T01:23:04;100296.00;;;17.40
75822;BMP180;64454;51.984;9.838;2023-06-14T01:25:30;100291.00;;;17.30
75822;BMP180;64454;51.984;9.838;2023-06-14T01:28:00;100300.00;;;17.30
75822;BMP180;64454;51.984;9.838;2023-06-14T01:30:29;100296.00;;;17.20
75822;BMP180;64454;51.984;9.838;2023-06-14T01:32:59;100285.00;;;17.20
75822;BMP180;64454;51.984;9.838;2023-06-14T01:35:26;100285.00;;;17.20
75822;BMP180;64454;51.984;9.838;2023-06-14T01:37:53;100288.00;;;17.00
75822;BMP180;64454;51.984;9.838;2023-06-14T01:40:22;100289.00;;;17.00
75822;BMP180;64454;51.984;9.838;2023-06-14T01:42:51;100284.00;;;17.00
75822;BMP180;64454;51.984;9.838;2023-06-14T01:45:19;100292.00;;;16.90
75822;BMP180;64454;51.984;9.838;2023-06-14T01:47:47;100288.00;;;17.20
75822;BMP180;64454;51.984;9.838;2023-06-14T01:50:15;100299.00;;;16.90
75822;BMP180;64454;51.984;9.838;2023-06-14T01:52:43;100299.00;;;16.80
75822;BMP180;64454;51.984;9.838;2023-06-14T01:55:10;100299.00;;;16.90
75822;BMP180;64454;51.984;9.838;2023-06-14T01:57:38;100299.00;;;16.70
75822;BMP180;64454;51.984;9.838;2023-06-14T02:00:07;100298.00;;;16.80
75822;BMP180;64454;51.984;9.838;2023-06-14T02:02:38;100298.00;;;16.60
75822;BMP180;64454;51.984;9.838;2023-06-14T02:05:05;100298.00;;;16.70
75822;BMP180;64454;51.984;9.838;2023-06-14T02:07:33;100293.00;;;16.60
75822;BMP180;64454;51.984;9.838;2023-06-14T02:10:00;100300.00;;;16.30
75822;BMP180;64454;51.984;9.838;2023-06-14T02:12:26;100299.00;;;16.40
75822;BMP180;64454;51.984;9.838;2023-06-14T02:14:55;100309.00;;;16.40
75822;BMP180;64454;51.984;9.838;2023-06-14T02:17:21;100307.00;;;16.30
75822;BMP180;64454;51.984;9.838;2023-06-14T02:19:48;100308.00;;;16.00
75822;BMP180;64454;51.984;9.838;2023-06-14T02:22:16;100308.00;;;16.20
75822;BMP180;64454;51.984;9.838;2023-06-14T02:24:43;100314.00;;;16.10
75822;BMP180;64454;51.984;9.838;2023-06-14T02:27:11;100319.00;;;16.00
75822;BMP180;64454;51.984;9.838;2023-06-14T02:29:37;100315.00;;;16.00
75822;BMP180;64454;51.984;9.838;2023-06-14T02:32:07;100317.00;;;15.90
75822;BMP180;64454;51.984;9.838;2023-06-14T02:34:34;100326.00;;;15.90
75822;BMP180;64454;51.984;9.838;2023-06-14T02:37:01;100323.00;;;15.90
75822;BMP180;64454;51.984;9.838;2023-06-14T02:39:29;100322.00;;;15.70
75822;BMP180;64454;51.984;9.838;2023-06-14T02:41:56;100319.00;;;15.90
75822;BMP180;64454;51.984;9.838;2023-06-14T02:44:25;100321.00;;;15.70
75822;BMP180;64454;51.984;9.838;2023-06-14T02:46:53;100325.00;;;15.70
75822;BMP180;64454;51.984;9.838;2023-06-14T02:49:22;100330.00;;;15.60
75822;BMP180;64454;51.984;9.838;2023-06-14T02:51:49;100321.00;;;15.50
75822;BMP180;64454;51.984;9.838;2023-06-14T02:54:18;100337.00;;;15.50
75822;BMP180;64454;51.984;9.838;2023-06-14T02:56:45;100324.00;;;15.30
75822;BMP180;64454;51.984;9.838;2023-06-14T02:59:13;100332.00;;;15.40
75822;BMP180;64454;51.984;9.838;2023-06-14T03:01:40;100334.00;;;15.50
75822;BMP180;64454;51.984;9.838;2023-06-14T03:04:08;100335.00;;;15.40
75822;BMP180;64454;51.984;9.838;2023-06-14T03:06:36;100339.00;;;15.40
75822;BMP180;64454;51.984;9.838;2023-06-14T03:09:05;100341.00;;;15.40
75822;BMP180;64454;51.984;9.838;2023-06-14T03:11:33;100344.00;;;15.10
75822;BMP180;64454;51.984;9.838;2023-06-14T03:14:00;100340.00;;;15.30
75822;BMP180;64454;51.984;9.838;2023-06-14T03:16:29;100346.00;;;15.30
75822;BMP180;64454;51.984;9.838;2023-06-14T03:18:57;100338.00;;;15.40
75822;BMP180;64454;51.984;9.838;2023-06-14T03:21:24;100346.00;;;15.40
75822;BMP180;64454;51.984;9.838;2023-06-14T03:23:52;100346.00;;;15.30
75822;BMP180;64454;51.984;9.838;2023-06-14T03:26:20;100341.00;;;15.20
75822;BMP180;64454;51.984;9.838;2023-06-14T03:28:48;100345.00;;;15.30
75822;BMP180;64454;51.984;9.838;2023-06-14T03:31:15;100348.00;;;14.80
75822;BMP180;64454;51.984;9.838;2023-06-14T03:33:42;100350.00;;;14.80
75822;BMP180;64454;51.984;9.838;2023-06-14T03:36:09;100358.00;;;15.00
75822;BMP180;64454;51.984;9.838;2023-06-14T03:38:36;100358.00;;;15.00
75822;BMP180;64454;51.984;9.838;2023-06-14T03:41:04;100370.00;;;15.00
75822;BMP180;64454;51.984;9.838;2023-06-14T03:43:31;100364.00;;;15.00
75822;BMP180;64454;51.984;9.838;2023-06-14T03:45:59;100372.00;;;15.10
75822;BMP180;64454;51.984;9.838;2023-06-14T03:48:26;100368.00;;;15.10
75822;BMP180;64454;51.984;9.838;2023-06-14T03:50:52;100372.00;;;15.10
75822;BMP180;64454;51.984;9.838;2023-06-14T03:53:20;100375.00;;;15.20
75822;BMP180;64454;51.984;9.838;2023-06-14T03:55:48;100379.00;;;15.00
75822;BMP180;64454;51.984;9.838;2023-06-14T03:58:19;100378.00;;;15.00
75822;BMP180;64454;51.984;9.838;2023-06-14T04:00:46;100372.00;;;15.00
75822;BMP180;64454;51.984;9.838;2023-06-14T04:03:13;100375.00;;;15.10
75822;BMP180;64454;51.984;9.838;2023-06-14T04:05:41;100377.00;;;15.00
75822;BMP180;64454;51.984;9.838;2023-06-14T04:08:09;100381.00;;;15.00
75822;BMP180;64454;51.984;9.838;2023-06-14T04:10:36;100376.00;;;15.00
75822;BMP180;64454;51.984;9.838;2023-06-14T04:13:04;100383.00;;;15.00
75822;BMP180;64454;51.984;9.838;2023-06-14T04:15:34;100385.00;;;15.00
75822;BMP180;64454;51.984;9.838;2023-06-14T04:18:01;100392.00;;;14.80
75822;BMP180;64454;51.984;9.838;2023-06-14T04:20:28;100394.00;;;14.90
75822;BMP180;64454;51.984;9.838;2023-06-14T04:22:57;100397.00;;;14.80
75822;BMP180;64454;51.984;9.838;2023-06-14T04:25:23;100399.00;;;14.70
75822;BMP180;64454;51.984;9.838;2023-06-14T04:27:51;100403.00;;;14.70
75822;BMP180;64454;51.984;9.838;2023-06-14T04:30:19;100407.00;;;14.70
75822;BMP180;64454;51.984;9.838;2023-06-14T04:32:48;100410.00;;;14.60
75822;BMP180;64454;51.984;9.838;2023-06-14T04:35:15;100415.00;;;14.70
75822;BMP180;64454;51.984;9.838;2023-06-14T04:37:42;100409.00;;;14.50
75822;BMP180;64454;51.984;9.838;2023-06-14T04:40:11;100421.00;;;14.70
75822;BMP180;64454;51.984;9.838;2023-06-14T04:42:38;100420.00;;;14.40
75822;BMP180;64454;51.984;9.838;2023-06-14T04:45:07;100418.00;;;14.50
75822;BMP180;64454;51.984;9.838;2023-06-14T04:47:35;100419.00;;;14.40
75822;BMP180;64454;51.984;9.838;2023-06-14T04:50:05;100425.00;;;14.50
75822;BMP180;64454;51.984;9.838;2023-06-14T04:52:32;100425.00;;;14.60
75822;BMP180;64454;51.984;9.838;2023-06-14T04:55:01;100430.00;;;14.60
75822;BMP180;64454;51.984;9.838;2023-06-14T04:57:28;100420.00;;;14.50
75822;BMP180;64454;51.984;9.838;2023-06-14T04:59:57;100425.00;;;14.70
75822;BMP180;64454;51.984;9.838;2023-06-14T05:02:26;100430.00;;;15.00
75822;BMP180;64454;51.984;9.838;2023-06-14T05:04:56;100432.00;;;14.80
75822;BMP180;64454;51.984;9.838;2023-06-14T05:07:24;100435.00;;;14.70
75822;BMP180;64454;51.984;9.838;2023-06-14T05:09:51;100442.00;;;15.00
75822;BMP180;64454;51.984;9.838;2023-06-14T05:12:18;100437.00;;;14.80
75822;BMP180;64454;51.984;9.838;2023-06-14T05:14:45;100438.00;;;15.20
75822;BMP180;64454;51.984;9.838;2023-06-14T05:17:12;100437.00;;;15.00
75822;BMP180;64454;51.984;9.838;2023-06-14T05:19:38;100439.00;;;14.60
75822;BMP180;64454;51.984;9.838;2023-06-14T05:22:06;100431.00;;;15.00
75822;BMP180;64454;51.984;9.838;2023-06-14T05:24:34;100437.00;;;15.30
75822;BMP180;64454;51.984;9.838;2023-06-14T05:27:01;100440.00;;;15.30
75822;BMP180;64454;51.984;9.838;2023-06-14T05:29:27;100433.00;;;15.60
75822;BMP180;64454;51.984;9.838;2023-06-14T05:31:54;100438.00;;;15.40
75822;BMP180;64454;51.984;9.838;2023-06-14T05:34:21;100432.00;;;15.20
75822;BMP180;64454;51.984;9.838;2023-06-14T05:36:47;100435.00;;;15.30
75822;BMP180;64454;51.984;9.838;2023-06-14T05:39:16;100439.00;;;15.40
75822;BMP180;64454;51.984;9.838;2023-06-14T05:41:45;100435.00;;;15.20
75822;BMP180;64454;51.984;9.838;2023-06-14T05:44:12;100438.00;;;15.50
75822;BMP180;64454;51.984;9.838;2023-06-14T05:46:39;100440.00;;;15.50
75822;BMP180;64454;51.984;9.838;2023-06-14T05:49:06;100440.00;;;15.50
75822;BMP180;64454;51.984;9.838;2023-06-14T05:51:33;100449.00;;;15.60
75822;BMP180;64454;51.984;9.838;2023-06-14T05:54:00;100452.00;;;16.00
75822;BMP180;64454;51.984;9.838;2023-06-14T05:56:27;100453.00;;;15.70
75822;BMP180;64454;51.984;9.838;2023-06-14T05:58:55;100447.00;;;15.90
75822;BMP180;64454;51.984;9.838;2023-06-14T06:01:21;100454.00;;;16.00
75822;BMP180;64454;51.984;9.838;2023-06-14T06:03:48;100461.00;;;15.90
75822;BMP180;64454;51.984;9.838;2023-06-14T06:06:15;100462.00;;;15.80
75822;BMP180;64454;51.984;9.838;2023-06-14T06:08:41;100462.00;;;15.90
75822;BMP180;64454;51.984;9.838;2023-06-14T06:11:09;100461.00;;;16.10
75822;BMP180;64454;51.984;9.838;2023-06-14T06:13:36;100461.00;;;16.00
75822;BMP180;64454;51.984;9.838;2023-06-14T06:16:05;100461.00;;;16.00
75822;BMP180;64454;51.984;9.838;2023-06-14T06:18:32;100455.00;;;16.20
75822;BMP180;64454;51.984;9.838;2023-06-14T06:20:59;100456.00;;;16.20
75822;BMP180;64454;51.984;9.838;2023-06-14T06:23:26;100460.00;;;16.30
75822;BMP180;64454;51.984;9.838;2023-06-14T06:25:53;100460.00;;;16.20
75822;BMP180;64454;51.984;9.838;2023-06-14T06:28:19;100460.00;;;16.60
75822;BMP180;64454;51.984;9.838;2023-06-14T06:30:46;100459.00;;;16.70
75822;BMP180;64454;51.984;9.838;2023-06-14T06:33:14;100460.00;;;16.50
75822;BMP180;64454;51.984;9.838;2023-06-14T06:35:41;100460.00;;;16.70
75822;BMP180;64454;51.984;9.838;2023-06-14T06:38:08;100470.00;;;16.90
75822;BMP180;64454;51.984;9.838;2023-06-14T06:40:35;100465.00;;;16.60
75822;BMP180;64454;51.984;9.838;2023-06-14T06:43:02;100473.00;;;17.00
75822;BMP180;64454;51.984;9.838;2023-06-14T06:45:29;100471.00;;;17.10
75822;BMP180;64454;51.984;9.838;2023-06-14T06:47:56;100480.00;;;17.40
75822;BMP180;64454;51.984;9.838;2023-06-14T06:50:24;100476.00;;;17.40
75822;BMP180;64454;51.984;9.838;2023-06-14T06:52:51;100475.00;;;17.50
75822;BMP180;64454;51.984;9.838;2023-06-14T06:55:18;100473.00;;;17.90
75822;BMP180;64454;51.984;9.838;2023-06-14T06:57:45;100476.00;;;17.90
75822;BMP180;64454;51.984;9.838;2023-06-14T07:00:12;100480.00;;;17.90
75822;BMP180;64454;51.984;9.838;2023-06-14T07:02:39;100482.00;;;17.80
75822;BMP180;64454;51.984;9.838;2023-06-14T07:05:06;100478.00;;;18.10
75822;BMP180;64454;51.984;9.838;2023-06-14T07:07:34;100479.00;;;18.30
75822;BMP180;64454;51.984;9.838;2023-06-14T07:10:01;100484.00;;;18.10
75822;BMP180;64454;51.984;9.838;2023-06-14T07:12:30;100486.00;;;18.00
75822;BMP180;64454;51.984;9.838;2023-06-14T07:14:57;100485.00;;;18.10
75822;BMP180;64454;51.984;9.838;2023-06-14T07:17:23;100484.00;;;18.20
75822;BMP180;64454;51.984;9.838;2023-06-14T07:19:50;100491.00;;;18.30
75822;BMP180;64454;51.984;9.838;2023-06-14T07:22:18;100499.00;;;18.30
75822;BMP180;64454;51.984;9.838;2023-06-14T07:24:46;100485.00;;;18.50
75822;BMP180;64454;51.984;9.838;2023-06-14T07:27:13;100484.00;;;18.90
75822;BMP180;64454;51.984;9.838;2023-06-14T07:29:40;100491.00;;;19.00
75822;BMP180;64454;51.984;9.838;2023-06-14T07:32:07;100496.00;;;18.80
75822;BMP180;64454;51.984;9.838;2023-06-14T07:34:33;100487.00;;;18.80
75822;BMP180;64454;51.984;9.838;2023-06-14T07:37:00;100490.00;;;18.90
75822;BMP180;64454;51.984;9.838;2023-06-14T07:39:27;100493.00;;;19.30
75822;BMP180;64454;51.984;9.838;2023-06-14T07:41:55;100492.00;;;19.30
75822;BMP180;64454;51.984;9.838;2023-06-14T07:44:22;100496.00;;;19.30
75822;BMP180;64454;51.984;9.838;2023-06-14T07:46:48;100492.00;;;19.40
75822;BMP180;64454;51.984;9.838;2023-06-14T07:49:17;100495.00;;;19.70
75822;BMP180;64454;51.984;9.838;2023-06-14T07:51:45;100500.00;;;19.80
75822;BMP180;64454;51.984;9.838;2023-06-14T07:54:14;100492.00;;;20.00
75822;BMP180;64454;51.984;9.838;2023-06-14T07:56:42;100500.00;;;19.70
75822;BMP180;64454;51.984;9.838;2023-06-14T07:59:10;100492.00;;;20.00
75822;BMP180;64454;51.984;9.838;2023-06-14T08:01:37;100489.00;;;20.40
75822;BMP180;64454;51.984;9.838;2023-06-14T08:04:05;100484.00;;;20.30
75822;BMP180;64454;51.984;9.838;2023-06-14T08:06:32;100481.00;;;21.10
75822;BMP180;64454;51.984;9.838;2023-06-14T08:08:59;100488.00;;;20.60
75822;BMP180;64454;51.984;9.838;2023-06-14T08:11:26;100485.00;;;21.10
75822;BMP180;64454;51.984;9.838;2023-06-14T08:13:53;100492.00;;;21.10
75822;BMP180;64454;51.984;9.838;2023-06-14T08:16:21;100496.00;;;21.60
75822;BMP180;64454;51.984;9.838;2023-06-14T08:18:48;100496.00;;;21.10
75822;BMP180;64454;51.984;9.838;2023-06-14T08:21:14;100503.00;;;21.40
75822;BMP180;64454;51.984;9.838;2023-06-14T08:23:41;100492.00;;;21.50
75822;BMP180;64454;51.984;9.838;2023-06-14T08:26:08;100508.00;;;21.80
75822;BMP180;64454;51.984;9.838;2023-06-14T08:28:35;100497.00;;;22.20
75822;BMP180;64454;51.984;9.838;2023-06-14T08:31:01;100497.00;;;21.30
75822;BMP180;64454;51.984;9.838;2023-06-14T08:33:29;100498.00;;;22.10
75822;BMP180;64454;51.984;9.838;2023-06-14T08:35:58;100493.00;;;22.00
75822;BMP180;64454;51.984;9.838;2023-06-14T08:38:25;100497.00;;;22.00
75822;BMP180;64454;51.984;9.838;2023-06-14T08:40:52;100501.00;;;22.10
75822;BMP180;64454;51.984;9.838;2023-06-14T08:43:23;100502.00;;;21.70
75822;BMP180;64454;51.984;9.838;2023-06-14T08:45:53;100489.00;;;21.90
75822;BMP180;64454;51.984;9.838;2023-06-14T08:48:26;100484.00;;;22.00
75822;BMP180;64454;51.984;9.838;2023-06-14T08:50:55;100486.00;;;22.20
75822;BMP180;64454;51.984;9.838;2023-06-14T08:53:27;100492.00;;;22.40
75822;BMP180;64454;51.984;9.838;2023-06-14T08:55:57;100497.00;;;22.40
75822;BMP180;64454;51.984;9.838;2023-06-14T08:58:25;100492.00;;;22.50
75822;BMP180;64454;51.984;9.838;2023-06-14T09:00:55;100480.00;;;23.10
75822;BMP180;64454;51.984;9.838;2023-06-14T09:03:22;100492.00;;;22.80
75822;BMP180;64454;51.984;9.838;2023-06-14T09:05:56;100494.00;;;22.90
75822;BMP180;64454;51.984;9.838;2023-06-14T09:08:25;100502.00;;;23.00
75822;BMP180;64454;51.984;9.838;2023-06-14T09:10:52;100500.00;;;23.10
75822;BMP180;64454;51.984;9.838;2023-06-14T09:13:18;100494.00;;;23.10
75822;BMP180;64454;51.984;9.838;2023-06-14T09:15:45;100501.00;;;23.10
75822;BMP180;64454;51.984;9.838;2023-06-14T09:18:12;100507.00;;;22.90
75822;BMP180;64454;51.984;9.838;2023-06-14T09:20:40;100495.00;;;23.60
75822;BMP180;64454;51.984;9.838;2023-06-14T09:23:08;100510.00;;;23.00
75822;BMP180;64454;51.984;9.838;2023-06-14T09:25:45;100509.00;;;23.40
75822;BMP180;64454;51.984;9.838;2023-06-14T09:28:12;100496.00;;;23.50
75822;BMP180;64454;51.984;9.838;2023-06-14T09:30:39;100506.00;;;24.40
75822;BMP180;64454;51.984;9.838;2023-06-14T09:33:06;100519.00;;;24.90
75822;BMP180;64454;51.984;9.838;2023-06-14T09:35:32;100518.00;;;25.00
75822;BMP180;64454;51.984;9.838;2023-06-14T09:37:59;100508.00;;;24.60
75822;BMP180;64454;51.984;9.838;2023-06-14T09:40:27;100512.00;;;23.80
75822;BMP180;64454;51.984;9.838;2023-06-14T09:42:54;100509.00;;;23.50
75822;BMP180;64454;51.984;9.838;2023-06-14T09:45:23;100514.00;;;23.70
75822;BMP180;64454;51.984;9.838;2023-06-14T09:47:51;100513.00;;;24.20
75822;BMP180;64454;51.984;9.838;2023-06-14T09:50:17;100506.00;;;24.20
75822;BMP180;64454;51.984;9.838;2023-06-14T09:52:44;100512.00;;;25.10
75822;BMP180;64454;51.984;9.838;2023-06-14T09:55:13;100508.00;;;24.70
75822;BMP180;64454;51.984;9.838;2023-06-14T09:57:42;100503.00;;;24.90
75822;BMP180;64454;51.984;9.838;2023-06-14T10:00:13;100505.00;;;25.20
75822;BMP180;64454;51.984;9.838;2023-06-14T10:02:42;100504.00;;;24.90
75822;BMP180;64454;51.984;9.838;2023-06-14T10:05:15;100504.00;;;25.40
75822;BMP180;64454;51.984;9.838;2023-06-14T10:07:49;100494.00;;;25.50
75822;BMP180;64454;51.984;9.838;2023-06-14T10:10:19;100495.00;;;25.30
75822;BMP180;64454;51.984;9.838;2023-06-14T10:12:48;100492.00;;;25.80
75822;BMP180;64454;51.984;9.838;2023-06-14T10:15:22;100506.00;;;25.30
75822;BMP180;64454;51.984;9.838;2023-06-14T10:17:56;100504.00;;;24.90
75822;BMP180;64454;51.984;9.838;2023-06-14T10:20:34;100491.00;;;24.70
75822;BMP180;64454;51.984;9.838;2023-06-14T10:23:12;100494.00;;;25.20
75822;BMP180;64454;51.984;9.838;2023-06-14T10:25:40;100492.00;;;25.40
75822;BMP180;64454;51.984;9.838;2023-06-14T10:28:17;100491.00;;;25.20
75822;BMP180;64454;51.984;9.838;2023-06-14T10:31:07;100476.00;;;25.30
75822;BMP180;64454;51.984;9.838;2023-06-14T10:33:34;100496.00;;;25.90
75822;BMP180;64454;51.984;9.838;2023-06-14T10:36:27;100485.00;;;26.40
75822;BMP180;64454;51.984;9.838;2023-06-14T10:39:00;100479.00;;;25.20
75822;BMP180;64454;51.984;9.838;2023-06-14T10:41:28;100472.00;;;25.30
75822;BMP180;64454;51.984;9.838;2023-06-14T10:44:31;100475.00;;;25.30
75822;BMP180;64454;51.984;9.838;2023-06-14T10:46:59;100472.00;;;25.90
75822;BMP180;64454;51.984;9.838;2023-06-14T10:49:41;100476.00;;;26.40
75822;BMP180;64454;51.984;9.838;2023-06-14T10:52:09;100472.00;;;26.10
75822;BMP180;64454;51.984;9.838;2023-06-14T10:55:07;100465.00;;;26.50
75822;BMP180;64454;51.984;9.838;2023-06-14T10:57:38;100475.00;;;26.10
75822;BMP180;64454;51.984;9.838;2023-06-14T11:00:10;100470.00;;;26.70
75822;BMP180;64454;51.984;9.838;2023-06-14T11:06:15;100476.00;;;26.80
75822;BMP180;64454;51.984;9.838;2023-06-14T11:09:19;100470.00;;;26.40
75822;BMP180;64454;51.984;9.838;2023-06-14T11:11:48;100466.00;;;26.50
75822;BMP180;64454;51.984;9.838;2023-06-14T11:14:18;100472.00;;;26.30
75822;BMP180;64454;51.984;9.838;2023-06-14T11:16:50;100467.00;;;26.20
75822;BMP180;64454;51.984;9.838;2023-06-14T11:19:19;100469.00;;;26.80
75822;BMP180;64454;51.984;9.838;2023-06-14T11:21:47;100465.00;;;25.90
75822;BMP180;64454;51.984;9.838;2023-06-14T11:24:17;100464.00;;;26.10
75822;BMP180;64454;51.984;9.838;2023-06-14T11:26:47;100452.00;;;25.90
75822;BMP180;64454;51.984;9.838;2023-06-14T11:29:19;100457.00;;;26.70
75822;BMP180;64454;51.984;9.838;2023-06-14T11:31:48;100453.00;;;26.90
75822;BMP180;64454;51.984;9.838;2023-06-14T11:34:17;100448.00;;;28.10
75822;BMP180;64454;51.984;9.838;2023-06-14T11:36:45;100461.00;;;26.60
75822;BMP180;64454;51.984;9.838;2023-06-14T11:39:14;100452.00;;;26.50
75822;BMP180;64454;51.984;9.838;2023-06-14T11:41:45;100452.00;;;27.10
75822;BMP180;64454;51.984;9.838;2023-06-14T11:44:12;100450.00;;;27.10
75822;BMP180;64454;51.984;9.838;2023-06-14T11:46:40;100470.00;;;26.70
75822;BMP180;64454;51.984;9.838;2023-06-14T11:49:08;100467.00;;;27.00
75822;BMP180;64454;51.984;9.838;2023-06-14T11:51:36;100453.00;;;26.50
75822;BMP180;64454;51.984;9.838;2023-06-14T11:54:06;100449.00;;;26.40
75822;BMP180;64454;51.984;9.838;2023-06-14T11:56:33;100440.00;;;26.30
75822;BMP180;64454;51.984;9.838;2023-06-14T11:59:03;100446.00;;;26.90
75822;BMP180;64454;51.984;9.838;2023-06-14T12:01:31;100447.00;;;27.00
75822;BMP180;64454;51.984;9.838;2023-06-14T12:03:59;100446.00;;;27.10
75822;BMP180;64454;51.984;9.838;2023-06-14T12:06:30;100454.00;;;26.20
75822;BMP180;64454;51.984;9.838;2023-06-14T12:09:04;100444.00;;;25.70
75822;BMP180;64454;51.984;9.838;2023-06-14T12:11:34;100459.00;;;26.40
75822;BMP180;64454;51.984;9.838;2023-06-14T12:14:03;100454.00;;;25.50
75822;BMP180;64454;51.984;9.838;2023-06-14T12:16:32;100441.00;;;25.50
75822;BMP180;64454;51.984;9.838;2023-06-14T12:19:11;100447.00;;;26.40
75822;BMP180;64454;51.984;9.838;2023-06-14T12:21:40;100438.00;;;27.30
75822;BMP180;64454;51.984;9.838;2023-06-14T12:24:08;100454.00;;;26.30
75822;BMP180;64454;51.984;9.838;2023-06-14T12:26:38;100456.00;;;25.30
75822;BMP180;64454;51.984;9.838;2023-06-14T12:29:07;100459.00;;;25.70
75822;BMP180;64454;51.984;9.838;2023-06-14T12:31:34;100453.00;;;25.80
75822;BMP180;64454;51.984;9.838;2023-06-14T12:34:01;100459.00;;;25.50
75822;BMP180;64454;51.984;9.838;2023-06-14T12:36:28;100449.00;;;25.30
75822;BMP180;64454;51.984;9.838;2023-06-14T12:38:56;100445.00;;;25.80
75822;BMP180;64454;51.984;9.838;2023-06-14T12:41:23;100443.00;;;26.10
75822;BMP180;64454;51.984;9.838;2023-06-14T12:43:50;100441.00;;;26.40
75822;BMP180;64454;51.984;9.838;2023-06-14T12:46:17;100441.00;;;26.60
75822;BMP180;64454;51.984;9.838;2023-06-14T12:48:44;100453.00;;;26.80
75822;BMP180;64454;51.984;9.838;2023-06-14T12:51:11;100453.00;;;25.60
75822;BMP180;64454;51.984;9.838;2023-06-14T12:53:37;100449.00;;;25.30
75822;BMP180;64454;51.984;9.838;2023-06-14T12:56:06;100444.00;;;25.40
75822;BMP180;64454;51.984;9.838;2023-06-14T12:58:33;100445.00;;;24.80
75822;BMP180;64454;51.984;9.838;2023-06-14T13:01:00;100452.00;;;24.40
75822;BMP180;64454;51.984;9.838;2023-06-14T13:03:27;100447.00;;;24.60
75822;BMP180;64454;51.984;9.838;2023-06-14T13:05:53;100445.00;;;24.90
75822;BMP180;64454;51.984;9.838;2023-06-14T13:08:20;100444.00;;;25.30
75822;BMP180;64454;51.984;9.838;2023-06-14T13:10:48;100439.00;;;24.70
75822;BMP180;64454;51.984;9.838;2023-06-14T13:13:16;100431.00;;;24.80
75822;BMP180;64454;51.984;9.838;2023-06-14T13:15:43;100428.00;;;25.30
75822;BMP180;64454;51.984;9.838;2023-06-14T13:18:11;100435.00;;;25.10
75822;BMP180;64454;51.984;9.838;2023-06-14T13:20:38;100433.00;;;25.30
75822;BMP180;64454;51.984;9.838;2023-06-14T13:23:05;100438.00;;;25.50
75822;BMP180;64454;51.984;9.838;2023-06-14T13:25:33;100426.00;;;25.70
75822;BMP180;64454;51.984;9.838;2023-06-14T13:28:00;100430.00;;;25.50
75822;BMP180;64454;51.984;9.838;2023-06-14T13:30:28;100428.00;;;25.00
75822;BMP180;64454;51.984;9.838;2023-06-14T13:32:55;100434.00;;;24.80
75822;BMP180;64454;51.984;9.838;2023-06-14T13:35:23;100434.00;;;24.80
75822;BMP180;64454;51.984;9.838;2023-06-14T13:37:50;100436.00;;;24.50
75822;BMP180;64454;51.984;9.838;2023-06-14T13:40:17;100437.00;;;23.70
75822;BMP180;64454;51.984;9.838;2023-06-14T13:42:44;100432.00;;;23.80
75822;BMP180;64454;51.984;9.838;2023-06-14T13:45:12;100440.00;;;23.90
75822;BMP180;64454;51.984;9.838;2023-06-14T13:47:40;100433.00;;;23.90
75822;BMP180;64454;51.984;9.838;2023-06-14T13:50:08;100434.00;;;23.80
75822;BMP180;64454;51.984;9.838;2023-06-14T13:52:35;100431.00;;;24.30
75822;BMP180;64454;51.984;9.838;2023-06-14T13:55:02;100424.00;;;24.80
75822;BMP180;64454;51.984;9.838;2023-06-14T13:57:30;100417.00;;;25.10
75822;BMP180;64454;51.984;9.838;2023-06-14T13:59:57;100424.00;;;25.70
75822;BMP180;64454;51.984;9.838;2023-06-14T14:02:26;100426.00;;;25.90
75822;BMP180;64454;51.984;9.838;2023-06-14T14:04:55;100423.00;;;25.40
75822;BMP180;64454;51.984;9.838;2023-06-14T14:07:23;100410.00;;;25.90